createdAt,value
2022-10-11T00:00:17.941Z,101103.06
2022-10-11T00:02:45.584Z,101101.38
2022-10-11T00:05:13.478Z,101109.38
2022-10-11T00:07:41.453Z,101097.44
2022-10-11T00:10:09.676Z,101103.56
2022-10-11T00:12:37.909Z,101110.06
2022-10-11T00:15:06.327Z,101108.53
2022-10-11T00:17:34.685Z,101117.69
2022-10-11T00:20:04.086Z,101109.84
2022-10-11T00:22:31.893Z,101085.22
2022-10-11T00:24:59.686Z,101101.72
2022-10-11T00:27:27.616Z,101110.88
2022-10-11T00:29:55.616Z,101121.94
2022-10-11T00:32:23.327Z,101120.59
2022-10-11T00:34:52.161Z,101108.34
2022-10-11T00:37:20.276Z,101123.31
2022-10-11T00:39:47.956Z,101120.22
2022-10-11T00:42:16.809Z,101116.81
2022-10-11T00:44:46.678Z,101118.19
2022-10-11T00:47:21.483Z,101130.09
2022-10-11T00:49:59.547Z,101125.69
2022-10-11T00:52:31.927Z,101126.69
2022-10-11T00:55:05.260Z,101125.69
2022-10-11T00:57:35.127Z,101135.84
2022-10-11T01:00:03.356Z,101138.75
2022-10-11T01:02:31.241Z,101142.16
2022-10-11T01:05:25.242Z,101148.63
2022-10-11T01:07:47.286Z,101151.50
2022-10-11T01:10:14.995Z,101142.31
2022-10-11T01:13:06.289Z,101160.69
2022-10-11T01:15:37.444Z,101152.19
2022-10-11T01:18:21.998Z,101154.53
2022-10-11T01:21:00.591Z,101172.59
2022-10-11T01:23:56.301Z,101157.25
2022-10-11T01:26:42.097Z,101168.84
2022-10-11T01:29:21.759Z,101169.88
2022-10-11T01:32:15.457Z,101169.00
2022-10-11T01:34:56.171Z,101165.06
2022-10-11T01:37:47.851Z,101169.69
2022-10-11T01:40:19.933Z,101171.91
2022-10-11T01:42:47.512Z,101174.94
2022-10-11T01:45:16.371Z,101169.88
2022-10-11T01:47:45.968Z,101195.03
2022-10-11T01:50:43.566Z,101186.72
2022-10-11T01:53:39.675Z,101185.66
2022-10-11T01:56:28.924Z,101180.06
2022-10-11T01:59:11.348Z,101197.25
2022-10-11T02:01:57.375Z,101183.97
2022-10-11T02:04:30.480Z,101191.63
2022-10-11T02:07:24.518Z,101170.50
2022-10-11T02:10:05.952Z,101187.50
2022-10-11T02:12:39.868Z,101182.69
2022-10-11T02:15:09.339Z,101186.81
2022-10-11T02:17:40.947Z,101195.31
2022-10-11T02:20:11.940Z,101195.44
2022-10-11T02:22:41.096Z,101198.38
2022-10-11T02:25:10.876Z,101197.34
2022-10-11T02:27:39.414Z,101215.34
2022-10-11T02:30:08.165Z,101208.22
2022-10-11T02:32:36.918Z,101210.59
2022-10-11T02:35:04.920Z,101217.75
2022-10-11T02:37:50.539Z,101216.03
2022-10-11T02:40:40.311Z,101223.19
2022-10-11T02:43:24.144Z,101227.41
2022-10-11T02:45:54.360Z,101221.44
2022-10-11T02:48:23.611Z,101221.47
2022-10-11T02:50:51.268Z,101224.69
2022-10-11T02:53:20.928Z,101226.03
2022-10-11T02:55:49.405Z,101222.44
2022-10-11T02:58:17.146Z,101226.03
2022-10-11T03:00:44.853Z,101219.56
2022-10-11T03:03:12.669Z,101217.69
2022-10-11T03:05:42.108Z,101216.31
2022-10-11T03:08:12.481Z,101224.78
2022-10-11T03:10:41.400Z,101216.44
2022-10-11T03:13:10.024Z,101221.16
2022-10-11T03:15:40.165Z,101215.22
2022-10-11T03:18:08.003Z,101215.91
2022-10-11T03:20:37.420Z,101217.56
2022-10-11T03:23:05.210Z,101221.81
2022-10-11T03:25:32.857Z,101220.28
2022-10-11T03:28:00.993Z,101224.00
2022-10-11T03:30:28.863Z,101218.25
2022-10-11T03:32:56.478Z,101223.69
2022-10-11T03:35:24.121Z,101220.59
2022-10-11T03:37:51.770Z,101224.53
2022-10-11T03:40:19.401Z,101226.53
2022-10-11T03:42:46.972Z,101230.28
2022-10-11T03:45:14.721Z,101225.16
2022-10-11T03:47:42.331Z,101229.06
2022-10-11T03:50:10.117Z,101237.41
2022-10-11T03:52:37.784Z,101219.44
2022-10-11T03:55:06.589Z,101232.16
2022-10-11T03:57:34.308Z,101235.72
2022-10-11T04:00:02.169Z,101252.91
2022-10-11T04:02:35.805Z,101251.88
2022-10-11T04:05:07.277Z,101244.38
2022-10-11T04:07:36.849Z,101246.75
2022-10-11T04:10:05.292Z,101242.41
2022-10-11T04:12:33.196Z,101244.81
2022-10-11T04:15:01.629Z,101253.78
2022-10-11T04:17:30.321Z,101259.41
2022-10-11T04:19:58.018Z,101255.69
2022-10-11T04:22:25.666Z,101256.38
2022-10-11T04:24:54.293Z,101259.22
2022-10-11T04:27:21.963Z,101269.97
2022-10-11T04:29:49.674Z,101265.41
2022-10-11T04:32:17.240Z,101264.34
2022-10-11T04:34:44.992Z,101270.84
2022-10-11T04:37:12.829Z,101264.22
2022-10-11T04:39:40.410Z,101268.50
2022-10-11T04:42:08.864Z,101267.63
2022-10-11T04:44:37.241Z,101272.75
2022-10-11T04:47:05.192Z,101281.59
2022-10-11T04:49:32.955Z,101290.06
2022-10-11T04:52:00.489Z,101285.88
2022-10-11T04:54:28.635Z,101287.91
2022-10-11T04:56:56.373Z,101279.88
2022-10-11T04:59:24.735Z,101295.41
2022-10-11T05:01:52.274Z,101295.63
2022-10-11T05:04:20.001Z,101301.22
2022-10-11T05:06:50.315Z,101292.91
2022-10-11T05:09:17.921Z,101300.25
2022-10-11T05:11:45.496Z,101310.66
2022-10-11T05:14:13.226Z,101299.09
2022-10-11T05:16:42.106Z,101307.75
2022-10-11T05:19:10.484Z,101306.91
2022-10-11T05:21:38.141Z,101308.00
2022-10-11T05:24:06.374Z,101313.06
2022-10-11T05:26:34.310Z,101313.06
2022-10-11T05:29:01.927Z,101315.78
2022-10-11T05:31:29.993Z,101315.25
2022-10-11T05:33:57.713Z,101314.75
2022-10-11T05:36:25.301Z,101342.19
2022-10-11T05:38:53.449Z,101331.25
2022-10-11T05:41:21.219Z,101334.03
2022-10-11T05:43:48.899Z,101337.91
2022-10-11T05:46:16.786Z,101342.81
2022-10-11T05:48:44.405Z,101339.59
2022-10-11T05:51:12.143Z,101358.84
2022-10-11T05:53:39.969Z,101336.25
2022-10-11T05:56:18.176Z,101352.22
2022-10-11T05:58:46.313Z,101348.84
2022-10-11T06:01:21.187Z,101351.81
2022-10-11T06:03:48.827Z,101338.78
2022-10-11T06:06:16.497Z,101357.38
2022-10-11T06:08:44.381Z,101350.16
2022-10-11T06:11:15.759Z,101350.53
2022-10-11T06:13:44.561Z,101355.28
2022-10-11T06:16:12.332Z,101348.53
2022-10-11T06:18:40.062Z,101355.66
2022-10-11T06:21:07.716Z,101367.97
2022-10-11T06:23:35.489Z,101350.91
2022-10-11T06:26:06.262Z,101371.72
2022-10-11T06:28:34.956Z,101347.03
2022-10-11T06:31:03.801Z,101350.78
2022-10-11T06:33:31.681Z,101353.22
2022-10-11T06:36:18.008Z,101350.66
2022-10-11T06:38:46.303Z,101355.44
2022-10-11T06:41:18.414Z,101346.75
2022-10-11T06:43:51.335Z,101351.00
2022-10-11T06:46:19.625Z,101358.53
2022-10-11T06:48:47.760Z,101362.44
2022-10-11T06:51:16.565Z,101359.19
2022-10-11T06:53:44.203Z,101357.16
2022-10-11T06:56:12.472Z,101364.31
2022-10-11T06:58:40.007Z,101368.06
2022-10-11T07:01:09.670Z,101369.09
2022-10-11T07:03:37.236Z,101378.44
2022-10-11T07:06:10.731Z,101367.91
2022-10-11T07:08:39.513Z,101386.16
2022-10-11T07:11:11.279Z,101384.25
2022-10-11T07:13:38.944Z,101397.47
2022-10-11T07:16:12.716Z,101387.28
2022-10-11T07:18:40.450Z,101396.78
2022-10-11T07:21:11.483Z,101393.22
2022-10-11T07:23:39.398Z,101392.25
2022-10-11T07:26:07.718Z,101394.28
2022-10-11T07:28:36.162Z,101395.53
2022-10-11T07:31:14.695Z,101404.19
2022-10-11T07:33:42.596Z,101394.81
2022-10-11T07:36:10.904Z,101409.81
2022-10-11T07:38:40.627Z,101394.63
2022-10-11T07:41:08.773Z,101398.91
2022-10-11T07:43:37.153Z,101395.38
2022-10-11T07:46:05.466Z,101404.06
2022-10-11T07:48:34.196Z,101400.00
2022-10-11T07:51:20.841Z,101392.13
2022-10-11T07:53:52.703Z,101400.69
2022-10-11T07:56:22.329Z,101372.69
2022-10-11T07:58:51.644Z,101385.28
2022-10-11T08:01:19.435Z,101374.19
2022-10-11T08:03:47.209Z,101371.28
2022-10-11T08:06:15.753Z,101385.28
2022-10-11T08:08:43.405Z,101386.13
2022-10-11T08:11:22.812Z,101386.13
2022-10-11T08:13:52.487Z,101393.13
2022-10-11T08:16:20.971Z,101373.78
2022-10-11T08:18:48.644Z,101384.38
2022-10-11T08:21:17.854Z,101374.91
2022-10-11T08:23:45.551Z,101385.34
2022-10-11T08:26:14.231Z,101373.63
2022-10-11T08:28:41.996Z,101370.59
2022-10-11T08:31:12.612Z,101376.78
2022-10-11T08:33:40.637Z,101360.66
2022-10-11T08:36:09.547Z,101374.19
2022-10-11T08:38:38.146Z,101377.03
2022-10-11T08:41:49.857Z,101387.97
2022-10-11T08:44:23.496Z,101373.97
2022-10-11T08:46:56.962Z,101371.56
2022-10-11T08:49:29.832Z,101395.31
2022-10-11T08:52:02.696Z,101371.19
2022-10-11T08:54:43.193Z,101377.13
2022-10-11T08:57:15.231Z,101364.16
2022-10-11T08:59:47.668Z,101379.56
2022-10-11T09:02:55.648Z,101373.75
2022-10-11T09:05:21.709Z,101368.88
2022-10-11T09:08:22.411Z,101371.66
2022-10-11T09:11:00.042Z,101394.06
2022-10-11T09:13:42.457Z,101377.13
2022-10-11T09:16:34.676Z,101364.78
2022-10-11T09:19:14.254Z,101366.59
2022-10-11T09:22:18.597Z,101366.41
2022-10-11T09:25:09.231Z,101372.66
2022-10-11T09:28:03.177Z,101376.34
2022-10-11T09:30:31.384Z,101379.72
2022-10-11T09:33:13.504Z,101358.09
2022-10-11T09:35:44.991Z,101379.38
2022-10-11T09:38:24.644Z,101375.31
2022-10-11T09:41:14.028Z,101389.09
2022-10-11T09:43:44.839Z,101378.03
2022-10-11T09:46:57.164Z,101373.50
2022-10-11T09:49:47.610Z,101377.22
2022-10-11T09:52:16.712Z,101358.94
2022-10-11T09:54:46.094Z,101370.25
2022-10-11T09:57:33.683Z,101367.50
2022-10-11T10:00:20.755Z,101361.13
2022-10-11T10:02:50.662Z,101363.88
2022-10-11T10:05:25.410Z,101350.03
2022-10-11T10:08:10.843Z,101362.66
2022-10-11T10:10:59.559Z,101361.13
2022-10-11T10:13:47.064Z,101345.41
2022-10-11T10:16:26.102Z,101370.50
2022-10-11T10:18:54.023Z,101360.91
2022-10-11T10:21:28.919Z,101360.59
2022-10-11T10:23:57.081Z,101361.84
2022-10-11T10:26:26.014Z,101365.31
2022-10-11T10:28:59.444Z,101358.03
2022-10-11T10:31:54.981Z,101366.00
2022-10-11T10:34:34.172Z,101357.75
2022-10-11T10:37:35.539Z,101366.25
2022-10-11T10:40:24.669Z,101365.81
2022-10-11T10:42:52.396Z,101355.03
2022-10-11T10:45:21.732Z,101362.25
2022-10-11T10:48:01.948Z,101364.72
2022-10-11T10:50:53.870Z,101358.63
2022-10-11T10:53:23.729Z,101354.56
2022-10-11T10:56:25.028Z,101358.94
2022-10-11T10:58:56.674Z,101370.72
2022-10-11T11:01:32.797Z,101364.81
2022-10-11T11:04:15.461Z,101341.53
2022-10-11T11:06:51.141Z,101349.78
2022-10-11T11:09:25.660Z,101361.13
2022-10-11T11:12:18.511Z,101350.16
2022-10-11T11:14:56.593Z,101362.16
2022-10-11T11:17:42.732Z,101356.84
2022-10-11T11:20:40.850Z,101352.38
2022-10-11T11:23:23.838Z,101356.13
2022-10-11T11:26:22.704Z,101354.56
2022-10-11T11:28:56.326Z,101356.22
2022-10-11T11:31:33.076Z,101353.88
2022-10-11T11:34:38.523Z,101363.38
2022-10-11T11:37:19.320Z,101354.97
2022-10-11T11:39:49.609Z,101361.38
2022-10-11T11:42:26.209Z,101366.31
2022-10-11T11:44:53.728Z,101375.41
2022-10-11T11:47:32.640Z,101373.50
2022-10-11T11:50:03.656Z,101377.44
2022-10-11T11:52:39.936Z,101364.66
2022-10-11T11:55:28.036Z,101365.19
2022-10-11T11:58:14.440Z,101363.41
2022-10-11T12:00:54.532Z,101371.06
2022-10-11T12:03:25.725Z,101375.94
2022-10-11T12:06:12.226Z,101389.34
2022-10-11T12:08:56.377Z,101387.28
2022-10-11T12:11:37.329Z,101378.31
2022-10-11T12:14:22.386Z,101379.75
2022-10-11T12:17:12.687Z,101385.47
2022-10-11T12:19:42.431Z,101376.81
2022-10-11T12:22:29.141Z,101388.78
2022-10-11T12:25:00.882Z,101377.34
2022-10-11T12:27:44.715Z,101384.56
2022-10-11T12:30:53.605Z,101375.22
2022-10-11T12:33:26.412Z,101371.75
2022-10-11T12:35:54.008Z,101364.88
2022-10-11T12:38:24.509Z,101379.06
2022-10-11T12:41:08.542Z,101379.38
2022-10-11T12:43:57.226Z,101379.31
2022-10-11T12:46:33.896Z,101374.72
2022-10-11T12:49:16.927Z,101389.56
2022-10-11T12:52:18.472Z,101379.72
2022-10-11T12:54:51.583Z,101377.84
2022-10-11T12:57:53.181Z,101395.84
2022-10-11T13:00:28.165Z,101388.13
2022-10-11T13:03:03.598Z,101385.31
2022-10-11T13:05:45.186Z,101372.09
2022-10-11T13:08:21.677Z,101386.94
2022-10-11T13:10:51.371Z,101385.31
2022-10-11T13:13:27.019Z,101388.09
2022-10-11T13:15:56.743Z,101388.19
2022-10-11T13:18:25.341Z,101387.03
2022-10-11T13:20:55.087Z,101386.03
2022-10-11T13:23:34.676Z,101387.97
2022-10-11T13:26:28.156Z,101381.50
2022-10-11T13:28:56.481Z,101361.31
2022-10-11T13:31:25.141Z,101375.91
2022-10-11T13:33:55.227Z,101384.88
2022-10-11T13:36:24.708Z,101382.75
2022-10-11T13:38:59.776Z,101378.84
2022-10-11T13:41:29.966Z,101380.06
2022-10-11T13:43:58.509Z,101381.06
2022-10-11T13:46:27.111Z,101384.97
2022-10-11T13:49:03.382Z,101384.47
2022-10-11T13:51:35.195Z,101384.38
2022-10-11T13:54:10.405Z,101379.19
2022-10-11T13:56:46.705Z,101385.69
2022-10-11T13:59:24.896Z,101392.06
2022-10-11T14:01:57.907Z,101392.69
2022-10-11T14:04:29.469Z,101391.19
2022-10-11T14:06:58.745Z,101398.50
2022-10-11T14:09:30.548Z,101391.84
2022-10-11T14:12:26.072Z,101406.81
2022-10-11T14:14:53.629Z,101398.25
2022-10-11T14:17:22.448Z,101410.19
2022-10-11T14:20:11.959Z,101401.09
2022-10-11T14:22:40.396Z,101398.03
2022-10-11T14:25:08.053Z,101411.53
2022-10-11T14:27:37.031Z,101403.03
2022-10-11T14:30:27.417Z,101403.63
2022-10-11T14:32:56.469Z,101405.50
2022-10-11T14:35:30.062Z,101408.78
2022-10-11T14:37:57.654Z,101412.09
2022-10-11T14:40:27.109Z,101411.25
2022-10-11T14:42:55.145Z,101412.47
2022-10-11T14:45:22.736Z,101418.06
2022-10-11T14:47:51.053Z,101417.84
2022-10-11T14:50:27.830Z,101421.00
2022-10-11T14:52:55.712Z,101430.63
2022-10-11T14:55:23.588Z,101428.00
2022-10-11T14:57:51.286Z,101432.25
2022-10-11T15:00:20.727Z,101428.53
2022-10-11T15:02:49.649Z,101425.50
2022-10-11T15:05:17.240Z,101440.03
2022-10-11T15:07:44.829Z,101438.84
2022-10-11T15:10:23.172Z,101443.56
2022-10-11T15:12:51.271Z,101448.47
2022-10-11T15:15:21.225Z,101453.00
2022-10-11T15:17:53.712Z,101457.63
2022-10-11T15:20:41.413Z,101462.59
2022-10-11T15:23:12.394Z,101467.97
2022-10-11T15:25:40.663Z,101457.03
2022-10-11T15:28:08.856Z,101467.38
2022-10-11T15:30:41.265Z,101468.91
2022-10-11T15:33:10.018Z,101470.50
2022-10-11T15:35:37.573Z,101462.63
2022-10-11T15:38:05.137Z,101472.38
2022-10-11T15:40:37.086Z,101470.03
2022-10-11T15:43:04.741Z,101474.34
2022-10-11T15:45:32.391Z,101479.63
2022-10-11T15:48:00.723Z,101481.34
2022-10-11T15:50:34.608Z,101473.84
2022-10-11T15:53:05.328Z,101478.31
2022-10-11T15:55:34.232Z,101484.84
2022-10-11T15:58:02.277Z,101483.34
2022-10-11T16:00:30.228Z,101490.03
2022-10-11T16:02:58.425Z,101489.38
2022-10-11T16:05:26.853Z,101481.81
2022-10-11T16:07:54.468Z,101491.09
2022-10-11T16:10:22.158Z,101490.88
2022-10-11T16:12:50.189Z,101495.81
2022-10-11T16:15:17.933Z,101494.47
2022-10-11T16:17:47.459Z,101498.94
2022-10-11T16:20:15.927Z,101499.47
2022-10-11T16:22:43.748Z,101505.13
2022-10-11T16:25:13.016Z,101497.94
2022-10-11T16:27:41.364Z,101506.03
2022-10-11T16:30:12.005Z,101496.00
2022-10-11T16:32:41.143Z,101504.16
2022-10-11T16:35:09.230Z,101499.75
2022-10-11T16:37:36.802Z,101502.47
2022-10-11T16:40:08.491Z,101507.97
2022-10-11T16:42:37.769Z,101500.97
2022-10-11T16:45:06.636Z,101503.84
2022-10-11T16:47:34.505Z,101506.38
2022-10-11T16:50:02.239Z,101500.78
2022-10-11T16:52:30.455Z,101507.66
2022-10-11T16:54:58.205Z,101505.41
2022-10-11T16:57:25.833Z,101509.00
2022-10-11T16:59:53.431Z,101517.41
2022-10-11T17:02:28.755Z,101508.19
2022-10-11T17:04:59.851Z,101507.50
2022-10-11T17:07:28.642Z,101513.81
2022-10-11T17:09:56.333Z,101513.81
2022-10-11T17:12:24.447Z,101510.38
2022-10-11T17:14:55.559Z,101514.84
2022-10-11T17:17:23.104Z,101517.25
2022-10-11T17:19:50.654Z,101513.97
2022-10-11T17:22:19.034Z,101514.84
2022-10-11T17:24:47.558Z,101512.44
2022-10-11T17:27:15.218Z,101517.06
2022-10-11T17:29:42.820Z,101519.66
2022-10-11T17:32:10.462Z,101527.66
2022-10-11T17:34:38.163Z,101526.66
2022-10-11T17:37:06.285Z,101524.78
2022-10-11T17:39:34.248Z,101525.47
2022-10-11T17:42:07.359Z,101531.81
2022-10-11T17:44:36.247Z,101530.09
2022-10-11T17:47:04.336Z,101534.66
2022-10-11T17:49:33.569Z,101530.59
2022-10-11T17:52:01.368Z,101530.94
2022-10-11T17:54:28.957Z,101536.41
2022-10-11T17:56:58.856Z,101535.41
2022-10-11T17:59:30.767Z,101540.69
2022-10-11T18:01:58.541Z,101544.78
2022-10-11T18:04:29.604Z,101545.84
2022-10-11T18:06:57.339Z,101537.09
2022-10-11T18:09:42.021Z,101542.44
2022-10-11T18:12:10.488Z,101543.66
2022-10-11T18:14:38.117Z,101544.66
2022-10-11T18:17:05.774Z,101548.78
2022-10-11T18:19:33.611Z,101541.56
2022-10-11T18:22:05.979Z,101547.75
2022-10-11T18:24:34.997Z,101546.91
2022-10-11T18:27:02.706Z,101552.22
2022-10-11T18:29:30.935Z,101552.75
2022-10-11T18:31:58.590Z,101557.53
2022-10-11T18:34:26.372Z,101559.41
2022-10-11T18:36:54.017Z,101564.88
2022-10-11T18:39:22.224Z,101560.97
2022-10-11T18:41:49.957Z,101566.78
2022-10-11T18:44:17.584Z,101568.84
2022-10-11T18:46:45.391Z,101568.34
2022-10-11T18:49:13.674Z,101561.53
2022-10-11T18:51:42.151Z,101556.06
2022-10-11T18:54:13.892Z,101555.22
2022-10-11T18:56:45.455Z,101566.69
2022-10-11T18:59:13.230Z,101558.81
2022-10-11T19:01:42.212Z,101565.00
2022-10-11T19:04:10.625Z,101561.41
2022-10-11T19:06:39.930Z,101567.06
2022-10-11T19:09:11.890Z,101571.16
2022-10-11T19:11:41.929Z,101572.22
2022-10-11T19:14:11.859Z,101567.59
2022-10-11T19:16:45.597Z,101576.31
2022-10-11T19:19:13.342Z,101577.00
2022-10-11T19:21:40.960Z,101572.22
2022-10-11T19:24:09.060Z,101591.69
2022-10-11T19:26:38.741Z,101600.22
2022-10-11T19:29:11.643Z,101592.47
2022-10-11T19:31:44.698Z,101595.72
2022-10-11T19:34:12.280Z,101592.09
2022-10-11T19:36:42.409Z,101600.06
2022-10-11T19:39:14.200Z,101604.81
2022-10-11T19:41:42.088Z,101601.50
2022-10-11T19:44:11.014Z,101605.03
2022-10-11T19:46:51.096Z,101609.78
2022-10-11T19:49:22.867Z,101607.28
2022-10-11T19:51:50.962Z,101610.91
2022-10-11T19:54:18.615Z,101608.91
2022-10-11T19:56:47.179Z,101614.59
2022-10-11T19:59:15.109Z,101615.34
2022-10-11T20:01:45.500Z,101616.19
2022-10-11T20:04:39.548Z,101610.97
2022-10-11T20:07:03.592Z,101617.84
2022-10-11T20:09:31.586Z,101620.47
2022-10-11T20:11:59.208Z,101622.50
2022-10-11T20:14:26.880Z,101617.28
2022-10-11T20:16:54.615Z,101613.78
2022-10-11T20:19:27.868Z,101621.84
2022-10-11T20:21:58.135Z,101615.78
2022-10-11T20:24:29.033Z,101617.53
2022-10-11T20:26:56.715Z,101618.44
2022-10-11T20:29:25.569Z,101617.44
2022-10-11T20:31:53.372Z,101614.06
2022-10-11T20:34:20.993Z,101611.19
2022-10-11T20:36:49.472Z,101608.50
2022-10-11T20:39:18.022Z,101614.13
2022-10-11T20:41:45.755Z,101614.88
2022-10-11T20:44:16.011Z,101616.47
2022-10-11T20:46:43.668Z,101613.34
2022-10-11T20:49:11.612Z,101609.06
2022-10-11T20:51:41.623Z,101612.00
2022-10-11T20:54:10.878Z,101613.72
2022-10-11T20:56:39.256Z,101612.88
2022-10-11T20:59:07.021Z,101607.44
2022-10-11T21:01:37.301Z,101612.44
2022-10-11T21:04:05.386Z,101612.91
2022-10-11T21:06:33.524Z,101615.91
2022-10-11T21:09:01.351Z,101625.19
2022-10-11T21:11:31.317Z,101615.59
2022-10-11T21:13:59.989Z,101624.63
2022-10-11T21:16:32.452Z,101629.34
2022-10-11T21:19:00.621Z,101617.63
2022-10-11T21:21:28.663Z,101624.03
2022-10-11T21:23:57.091Z,101621.47
2022-10-11T21:26:24.738Z,101617.31
2022-10-11T21:28:54.293Z,101617.88
2022-10-11T21:31:22.417Z,101617.59
2022-10-11T21:33:50.865Z,101616.56
2022-10-11T21:36:20.063Z,101626.88
2022-10-11T21:38:48.148Z,101620.13
2022-10-11T21:41:20.608Z,101617.84
2022-10-11T21:43:48.354Z,101614.81
2022-10-11T21:46:47.517Z,101617.25
2022-10-11T21:49:15.168Z,101621.34
2022-10-11T21:51:43.862Z,101620.03
2022-10-11T21:54:11.721Z,101625.03
2022-10-11T21:56:39.321Z,101622.63
2022-10-11T21:59:11.030Z,101621.59
2022-10-11T22:01:40.917Z,101632.84
2022-10-11T22:04:09.639Z,101632.38
2022-10-11T22:06:38.155Z,101630.09
2022-10-11T22:09:06.639Z,101630.78
2022-10-11T22:11:34.650Z,101640.03
2022-10-11T22:14:03.335Z,101634.16
2022-10-11T22:16:31.119Z,101649.50
2022-10-11T22:19:00.171Z,101651.00
2022-10-11T22:21:28.126Z,101643.03
2022-10-11T22:23:56.145Z,101644.72
2022-10-11T22:26:26.148Z,101649.66
2022-10-11T22:28:53.954Z,101653.34
2022-10-11T22:31:22.048Z,101653.44
2022-10-11T22:33:53.351Z,101654.00
2022-10-11T22:36:20.903Z,101657.16
2022-10-11T22:38:49.534Z,101668.25
2022-10-11T22:41:17.303Z,101658.41
2022-10-11T22:43:45.522Z,101663.59
2022-10-11T22:46:13.464Z,101658.47
2022-10-11T22:48:41.043Z,101666.84
2022-10-11T22:51:08.633Z,101667.44
2022-10-11T22:53:36.381Z,101661.69
2022-10-11T22:56:04.371Z,101669.19
2022-10-11T22:58:34.345Z,101667.44
2022-10-11T23:01:09.277Z,101669.63
2022-10-11T23:03:37.052Z,101671.72
2022-10-11T23:06:05.337Z,101668.88
2022-10-11T23:08:33.064Z,101669.00
2022-10-11T23:11:07.414Z,101670.38
2022-10-11T23:13:35.204Z,101670.03
2022-10-11T23:16:08.588Z,101666.88
2022-10-11T23:18:42.221Z,101669.69
2022-10-11T23:21:13.307Z,101681.13
2022-10-11T23:23:41.127Z,101680.16
2022-10-11T23:26:12.053Z,101680.53
2022-10-11T23:28:39.676Z,101683.00
2022-10-11T23:31:16.778Z,101691.13
2022-10-11T23:33:45.161Z,101689.13
2022-10-11T23:36:25.476Z,101688.28
2022-10-11T23:38:54.698Z,101692.81
2022-10-11T23:41:23.397Z,101684.47
2022-10-11T23:43:51.205Z,101690.50
2022-10-11T23:46:18.883Z,101685.22
2022-10-11T23:48:47.005Z,101694.44
2022-10-11T23:51:14.738Z,101684.84
2022-10-11T23:53:42.438Z,101694.22
2022-10-11T23:56:10.319Z,101701.69
2022-10-11T23:58:38.274Z,101693.59
